sensor_id;sensor_type;location;lat;lon;timestamp;pressure;altitude;pressure_sealevel;temperature;humidity
62055;BME280;48653;51.742;-1.256;2023-03-24T00:03:43;98795.37;;;8.60;58.00
62055;BME280;48653;51.742;-1.256;2023-03-24T00:06:10;98801.72;;;8.47;58.75
62055;BME280;48653;51.742;-1.256;2023-03-24T00:08:34;98796.28;;;8.80;58.31
62055;BME280;48653;51.742;-1.256;2023-03-24T00:10:59;98797.87;;;8.39;59.18
62055;BME280;48653;51.742;-1.256;2023-03-24T00:13:24;98797.76;;;8.41;59.23
62055;BME280;48653;51.742;-1.256;2023-03-24T00:15:49;98799.99;;;8.38;59.57
62055;BME280;48653;51.742;-1.256;2023-03-24T00:18:14;98800.27;;;7.76;61.48
62055;BME280;48653;51.742;-1.256;2023-03-24T00:20:40;98806.08;;;7.98;60.90
62055;BME280;48653;51.742;-1.256;2023-03-24T00:23:06;98807.36;;;7.71;61.56
62055;BME280;48653;51.742;-1.256;2023-03-24T00:25:31;98812.58;;;7.17;62.50
62055;BME280;48653;51.742;-1.256;2023-03-24T00:27:56;98808.81;;;7.96;60.89
62055;BME280;48653;51.742;-1.256;2023-03-24T00:30:22;98816.18;;;7.28;61.99
62055;BME280;48653;51.742;-1.256;2023-03-24T00:32:46;98823.68;;;7.68;61.74
62055;BME280;48653;51.742;-1.256;2023-03-24T00:35:13;98825.86;;;7.69;60.93
62055;BME280;48653;51.742;-1.256;2023-03-24T00:37:38;98825.20;;;7.84;60.47
62055;BME280;48653;51.742;-1.256;2023-03-24T00:40:03;98835.88;;;7.94;60.15
62055;BME280;48653;51.742;-1.256;2023-03-24T00:42:31;98831.05;;;7.80;59.82
62055;BME280;48653;51.742;-1.256;2023-03-24T00:44:54;98836.02;;;7.71;60.50
62055;BME280;48653;51.742;-1.256;2023-03-24T00:47:19;98840.08;;;7.69;60.57
62055;BME280;48653;51.742;-1.256;2023-03-24T00:49:44;98847.24;;;7.39;60.85
62055;BME280;48653;51.742;-1.256;2023-03-24T00:52:11;98849.96;;;7.63;60.61
62055;BME280;48653;51.742;-1.256;2023-03-24T00:54:35;98856.20;;;7.65;60.69
62055;BME280;48653;51.742;-1.256;2023-03-24T00:57:01;98859.90;;;7.49;60.78
62055;BME280;48653;51.742;-1.256;2023-03-24T00:59:26;98856.64;;;7.69;60.69
62055;BME280;48653;51.742;-1.256;2023-03-24T01:01:51;98863.75;;;7.26;61.26
62055;BME280;48653;51.742;-1.256;2023-03-24T01:04:16;98868.56;;;7.25;60.97
62055;BME280;48653;51.742;-1.256;2023-03-24T01:06:42;98869.45;;;6.99;61.85
62055;BME280;48653;51.742;-1.256;2023-03-24T01:09:07;98870.70;;;6.89;62.53
62055;BME280;48653;51.742;-1.256;2023-03-24T01:11:35;98868.80;;;7.49;61.68
62055;BME280;48653;51.742;-1.256;2023-03-24T01:13:58;98876.55;;;7.19;61.31
62055;BME280;48653;51.742;-1.256;2023-03-24T01:16:23;98877.34;;;7.72;60.37
62055;BME280;48653;51.742;-1.256;2023-03-24T01:18:49;98877.86;;;7.09;61.54
62055;BME280;48653;51.742;-1.256;2023-03-24T01:21:14;98884.15;;;6.78;63.19
62055;BME280;48653;51.742;-1.256;2023-03-24T01:23:39;98891.22;;;6.78;63.10
62055;BME280;48653;51.742;-1.256;2023-03-24T01:26:07;98894.05;;;6.72;63.08
62055;BME280;48653;51.742;-1.256;2023-03-24T01:28:30;98894.93;;;7.43;60.90
62055;BME280;48653;51.742;-1.256;2023-03-24T01:30:55;98900.03;;;7.48;60.45
62055;BME280;48653;51.742;-1.256;2023-03-24T01:33:21;98902.66;;;7.73;59.15
62055;BME280;48653;51.742;-1.256;2023-03-24T01:35:46;98909.25;;;7.68;58.91
62055;BME280;48653;51.742;-1.256;2023-03-24T01:38:12;98910.45;;;7.86;58.59
62055;BME280;48653;51.742;-1.256;2023-03-24T01:40:39;98914.18;;;7.25;60.99
62055;BME280;48653;51.742;-1.256;2023-03-24T01:43:03;98917.49;;;7.40;60.61
62055;BME280;48653;51.742;-1.256;2023-03-24T01:45:41;98918.91;;;6.59;62.71
62055;BME280;48653;51.742;-1.256;2023-03-24T01:47:55;98917.25;;;7.45;60.03
62055;BME280;48653;51.742;-1.256;2023-03-24T01:50:19;98920.70;;;7.27;60.86
62055;BME280;48653;51.742;-1.256;2023-03-24T01:52:44;98924.58;;;7.66;59.22
62055;BME280;48653;51.742;-1.256;2023-03-24T01:55:13;98921.27;;;7.34;59.26
62055;BME280;48653;51.742;-1.256;2023-03-24T01:57:38;98921.61;;;6.78;61.35
62055;BME280;48653;51.742;-1.256;2023-03-24T02:00:02;98921.81;;;7.15;61.21
62055;BME280;48653;51.742;-1.256;2023-03-24T02:02:24;98918.37;;;7.50;59.72
62055;BME280;48653;51.742;-1.256;2023-03-24T02:04:51;98921.49;;;7.07;59.61
62055;BME280;48653;51.742;-1.256;2023-03-24T02:07:21;98923.37;;;6.71;60.14
62055;BME280;48653;51.742;-1.256;2023-03-24T02:09:40;98925.77;;;6.79;60.07
62055;BME280;48653;51.742;-1.256;2023-03-24T02:12:06;98927.62;;;7.02;60.37
62055;BME280;48653;51.742;-1.256;2023-03-24T02:14:31;98930.10;;;7.25;60.19
62055;BME280;48653;51.742;-1.256;2023-03-24T02:17:10;98931.33;;;6.79;60.84
62055;BME280;48653;51.742;-1.256;2023-03-24T02:26:51;98953.45;;;6.91;59.28
62055;BME280;48653;51.742;-1.256;2023-03-24T02:31:45;98948.16;;;7.67;57.36
62055;BME280;48653;51.742;-1.256;2023-03-24T02:34:09;98949.12;;;6.51;59.65
62055;BME280;48653;51.742;-1.256;2023-03-24T02:36:39;98949.60;;;7.17;59.20
62055;BME280;48653;51.742;-1.256;2023-03-24T02:41:12;98951.50;;;7.28;57.73
62055;BME280;48653;51.742;-1.256;2023-03-24T02:43:43;98954.90;;;7.34;57.73
62055;BME280;48653;51.742;-1.256;2023-03-24T02:46:08;98952.59;;;6.92;58.38
62055;BME280;48653;51.742;-1.256;2023-03-24T02:48:31;98957.57;;;7.22;57.57
62055;BME280;48653;51.742;-1.256;2023-03-24T02:50:55;98957.58;;;7.35;57.31
62055;BME280;48653;51.742;-1.256;2023-03-24T02:53:19;98950.80;;;6.98;59.25
62055;BME280;48653;51.742;-1.256;2023-03-24T02:55:44;98947.93;;;7.21;58.44
62055;BME280;48653;51.742;-1.256;2023-03-24T02:58:10;98955.37;;;7.14;57.58
62055;BME280;48653;51.742;-1.256;2023-03-24T03:00:34;98949.58;;;7.19;58.66
62055;BME280;48653;51.742;-1.256;2023-03-24T03:03:00;98949.31;;;7.09;58.58
62055;BME280;48653;51.742;-1.256;2023-03-24T03:05:27;98949.03;;;6.98;59.02
62055;BME280;48653;51.742;-1.256;2023-03-24T03:07:49;98951.87;;;6.78;58.63
62055;BME280;48653;51.742;-1.256;2023-03-24T03:10:16;98951.97;;;6.92;58.57
62055;BME280;48653;51.742;-1.256;2023-03-24T03:12:39;98952.28;;;6.73;59.22
62055;BME280;48653;51.742;-1.256;2023-03-24T03:15:07;98949.74;;;7.18;58.01
62055;BME280;48653;51.742;-1.256;2023-03-24T03:17:34;98949.85;;;7.16;57.83
62055;BME280;48653;51.742;-1.256;2023-03-24T03:19:57;98950.68;;;7.02;58.28
62055;BME280;48653;51.742;-1.256;2023-03-24T03:22:22;98956.46;;;7.18;57.30
62055;BME280;48653;51.742;-1.256;2023-03-24T03:24:47;98951.13;;;6.66;57.80
62055;BME280;48653;51.742;-1.256;2023-03-24T03:27:13;98955.49;;;6.87;58.56
62055;BME280;48653;51.742;-1.256;2023-03-24T03:29:38;98953.31;;;6.64;59.01
62055;BME280;48653;51.742;-1.256;2023-03-24T03:32:02;98958.58;;;6.59;58.99
62055;BME280;48653;51.742;-1.256;2023-03-24T03:34:33;98961.44;;;6.82;58.50
62055;BME280;48653;51.742;-1.256;2023-03-24T03:36:55;98962.19;;;7.09;57.81
62055;BME280;48653;51.742;-1.256;2023-03-24T03:39:19;98961.74;;;7.14;57.52
62055;BME280;48653;51.742;-1.256;2023-03-24T03:41:41;98962.04;;;6.40;59.11
62055;BME280;48653;51.742;-1.256;2023-03-24T03:44:06;98959.90;;;6.67;58.52
62055;BME280;48653;51.742;-1.256;2023-03-24T03:46:31;98963.92;;;6.17;59.45
62055;BME280;48653;51.742;-1.256;2023-03-24T03:48:56;98964.81;;;6.27;59.04
62055;BME280;48653;51.742;-1.256;2023-03-24T03:51:21;98969.93;;;6.13;59.27
62055;BME280;48653;51.742;-1.256;2023-03-24T03:53:49;98969.54;;;6.55;58.58
62055;BME280;48653;51.742;-1.256;2023-03-24T03:56:11;98966.45;;;6.31;58.97
62055;BME280;48653;51.742;-1.256;2023-03-24T03:58:37;98967.53;;;5.75;60.33
62055;BME280;48653;51.742;-1.256;2023-03-24T04:01:03;98965.52;;;6.45;58.84
62055;BME280;48653;51.742;-1.256;2023-03-24T04:03:43;98965.19;;;6.76;57.79
62055;BME280;48653;51.742;-1.256;2023-03-24T04:05:56;98973.16;;;6.69;57.23
62055;BME280;48653;51.742;-1.256;2023-03-24T04:08:24;98976.18;;;6.79;57.57
62055;BME280;48653;51.742;-1.256;2023-03-24T04:11:04;98979.83;;;6.62;58.11
62055;BME280;48653;51.742;-1.256;2023-03-24T04:13:17;98978.17;;;6.50;58.21
62055;BME280;48653;51.742;-1.256;2023-03-24T04:15:42;98977.57;;;6.95;57.16
62055;BME280;48653;51.742;-1.256;2023-03-24T04:18:20;98976.71;;;5.54;59.83
62055;BME280;48653;51.742;-1.256;2023-03-24T04:20:30;98975.85;;;6.56;57.98
62055;BME280;48653;51.742;-1.256;2023-03-24T04:23:01;98974.48;;;5.91;59.58
62055;BME280;48653;51.742;-1.256;2023-03-24T04:25:22;98981.40;;;6.41;58.51
62055;BME280;48653;51.742;-1.256;2023-03-24T04:27:44;98984.44;;;6.43;58.48
62055;BME280;48653;51.742;-1.256;2023-03-24T04:30:11;98983.93;;;5.90;60.19
62055;BME280;48653;51.742;-1.256;2023-03-24T04:32:38;98986.60;;;5.80;60.12
62055;BME280;48653;51.742;-1.256;2023-03-24T04:35:00;98989.49;;;6.00;59.24
62055;BME280;48653;51.742;-1.256;2023-03-24T04:37:24;98986.36;;;6.19;59.05
62055;BME280;48653;51.742;-1.256;2023-03-24T04:39:48;98988.68;;;6.34;58.66
62055;BME280;48653;51.742;-1.256;2023-03-24T04:42:16;98993.19;;;6.31;59.26
62055;BME280;48653;51.742;-1.256;2023-03-24T04:44:38;98994.77;;;6.62;58.08
62055;BME280;48653;51.742;-1.256;2023-03-24T04:47:04;98994.01;;;6.23;59.45
62055;BME280;48653;51.742;-1.256;2023-03-24T04:49:28;98991.54;;;6.28;58.83
62055;BME280;48653;51.742;-1.256;2023-03-24T04:51:53;98999.35;;;6.28;59.64
62055;BME280;48653;51.742;-1.256;2023-03-24T04:54:18;99002.94;;;6.61;58.34
62055;BME280;48653;51.742;-1.256;2023-03-24T04:56:45;99006.92;;;6.29;59.42
62055;BME280;48653;51.742;-1.256;2023-03-24T04:59:08;99005.77;;;6.33;58.68
62055;BME280;48653;51.742;-1.256;2023-03-24T05:01:33;99004.99;;;6.22;58.89
62055;BME280;48653;51.742;-1.256;2023-03-24T05:03:59;99010.45;;;6.22;59.10
62055;BME280;48653;51.742;-1.256;2023-03-24T05:06:25;99009.16;;;5.79;59.80
62055;BME280;48653;51.742;-1.256;2023-03-24T05:08:49;99010.48;;;6.15;59.23
62055;BME280;48653;51.742;-1.256;2023-03-24T05:11:14;99011.64;;;6.37;58.75
62055;BME280;48653;51.742;-1.256;2023-03-24T05:13:39;99015.11;;;6.30;58.47
62055;BME280;48653;51.742;-1.256;2023-03-24T05:16:06;99015.67;;;6.45;58.22
62055;BME280;48653;51.742;-1.256;2023-03-24T05:18:31;99015.08;;;6.24;58.57
62055;BME280;48653;51.742;-1.256;2023-03-24T05:20:56;99010.58;;;6.79;57.30
62055;BME280;48653;51.742;-1.256;2023-03-24T05:23:21;99018.77;;;5.90;59.05
62055;BME280;48653;51.742;-1.256;2023-03-24T05:25:46;99020.08;;;5.75;59.63
62055;BME280;48653;51.742;-1.256;2023-03-24T05:28:11;99022.84;;;6.21;58.95
62055;BME280;48653;51.742;-1.256;2023-03-24T05:30:37;99025.66;;;6.03;59.39
62055;BME280;48653;51.742;-1.256;2023-03-24T05:33:02;99024.62;;;6.20;59.00
62055;BME280;48653;51.742;-1.256;2023-03-24T05:35:28;99025.32;;;6.46;58.37
62055;BME280;48653;51.742;-1.256;2023-03-24T05:37:53;99028.77;;;6.42;58.38
62055;BME280;48653;51.742;-1.256;2023-03-24T05:40:19;99034.36;;;6.43;58.31
62055;BME280;48653;51.742;-1.256;2023-03-24T05:42:44;99030.92;;;6.68;57.65
62055;BME280;48653;51.742;-1.256;2023-03-24T05:45:10;99022.57;;;6.99;57.64
62055;BME280;48653;51.742;-1.256;2023-03-24T05:47:35;99032.75;;;5.78;59.87
62055;BME280;48653;51.742;-1.256;2023-03-24T05:50:00;99029.37;;;6.10;59.24
62055;BME280;48653;51.742;-1.256;2023-03-24T05:52:25;99029.89;;;6.13;59.57
62055;BME280;48653;51.742;-1.256;2023-03-24T05:54:50;99029.28;;;5.89;59.98
62055;BME280;48653;51.742;-1.256;2023-03-24T05:57:15;99031.82;;;7.03;58.69
62055;BME280;48653;51.742;-1.256;2023-03-24T05:59:40;99031.22;;;5.94;59.62
62055;BME280;48653;51.742;-1.256;2023-03-24T06:02:06;99033.16;;;5.68;61.28
62055;BME280;48653;51.742;-1.256;2023-03-24T06:04:31;99028.97;;;5.99;60.70
62055;BME280;48653;51.742;-1.256;2023-03-24T06:06:57;99029.90;;;5.93;60.25
62055;BME280;48653;51.742;-1.256;2023-03-24T06:09:22;99029.28;;;6.23;59.48
62055;BME280;48653;51.742;-1.256;2023-03-24T06:11:48;99027.70;;;6.43;59.02
62055;BME280;48653;51.742;-1.256;2023-03-24T06:14:13;99027.67;;;6.42;58.96
62055;BME280;48653;51.742;-1.256;2023-03-24T06:16:39;99029.86;;;5.76;60.64
62055;BME280;48653;51.742;-1.256;2023-03-24T06:19:04;99034.33;;;6.66;58.69
62055;BME280;48653;51.742;-1.256;2023-03-24T06:21:29;99034.12;;;5.72;61.08
62055;BME280;48653;51.742;-1.256;2023-03-24T06:23:55;99035.70;;;6.31;60.60
62055;BME280;48653;51.742;-1.256;2023-03-24T06:26:20;99034.46;;;5.84;62.32
62055;BME280;48653;51.742;-1.256;2023-03-24T06:28:45;99033.84;;;6.11;60.71
62055;BME280;48653;51.742;-1.256;2023-03-24T06:31:10;99033.36;;;6.02;61.16
62055;BME280;48653;51.742;-1.256;2023-03-24T06:33:35;99036.33;;;6.16;61.54
62055;BME280;48653;51.742;-1.256;2023-03-24T06:36:00;99034.19;;;6.30;61.41
62055;BME280;48653;51.742;-1.256;2023-03-24T06:38:26;99029.43;;;6.69;59.96
62055;BME280;48653;51.742;-1.256;2023-03-24T06:40:51;99036.12;;;6.25;61.32
62055;BME280;48653;51.742;-1.256;2023-03-24T06:43:16;99037.29;;;6.16;61.54
62055;BME280;48653;51.742;-1.256;2023-03-24T06:45:42;99038.43;;;6.26;61.52
62055;BME280;48653;51.742;-1.256;2023-03-24T06:48:06;99044.15;;;6.29;61.66
62055;BME280;48653;51.742;-1.256;2023-03-24T06:50:32;99044.93;;;5.92;62.85
62055;BME280;48653;51.742;-1.256;2023-03-24T06:52:57;99052.81;;;6.12;63.02
62055;BME280;48653;51.742;-1.256;2023-03-24T06:55:23;99060.17;;;6.21;61.81
62055;BME280;48653;51.742;-1.256;2023-03-24T06:57:49;99066.25;;;6.69;61.54
62055;BME280;48653;51.742;-1.256;2023-03-24T07:00:15;99068.82;;;6.82;61.26
62055;BME280;48653;51.742;-1.256;2023-03-24T07:02:39;99074.50;;;6.92;60.37
62055;BME280;48653;51.742;-1.256;2023-03-24T07:05:06;99083.95;;;7.37;60.02
62055;BME280;48653;51.742;-1.256;2023-03-24T07:07:31;99083.67;;;7.33;60.37
62055;BME280;48653;51.742;-1.256;2023-03-24T07:09:55;99087.49;;;7.57;58.87
62055;BME280;48653;51.742;-1.256;2023-03-24T07:12:20;99086.64;;;7.54;58.66
62055;BME280;48653;51.742;-1.256;2023-03-24T07:14:46;99090.49;;;7.23;59.35
62055;BME280;48653;51.742;-1.256;2023-03-24T07:17:11;99094.35;;;7.24;60.06
62055;BME280;48653;51.742;-1.256;2023-03-24T07:19:36;99094.03;;;7.00;60.24
62055;BME280;48653;51.742;-1.256;2023-03-24T07:22:01;99092.55;;;6.96;60.32
62055;BME280;48653;51.742;-1.256;2023-03-24T07:24:27;99086.04;;;6.72;61.08
62055;BME280;48653;51.742;-1.256;2023-03-24T07:26:52;99087.08;;;7.28;60.70
62055;BME280;48653;51.742;-1.256;2023-03-24T07:29:18;99093.94;;;7.38;60.96
62055;BME280;48653;51.742;-1.256;2023-03-24T07:31:43;99092.20;;;7.37;60.59
62055;BME280;48653;51.742;-1.256;2023-03-24T07:34:08;99085.82;;;8.02;59.99
62055;BME280;48653;51.742;-1.256;2023-03-24T07:36:34;99087.86;;;7.55;60.15
62055;BME280;48653;51.742;-1.256;2023-03-24T07:38:59;99098.14;;;7.46;60.36
62055;BME280;48653;51.742;-1.256;2023-03-24T07:41:25;99098.19;;;7.70;59.91
62055;BME280;48653;51.742;-1.256;2023-03-24T07:43:50;99102.17;;;7.56;60.28
62055;BME280;48653;51.742;-1.256;2023-03-24T07:46:15;99101.52;;;7.67;59.87
62055;BME280;48653;51.742;-1.256;2023-03-24T07:48:41;99103.89;;;7.13;61.79
62055;BME280;48653;51.742;-1.256;2023-03-24T07:51:06;99099.86;;;7.73;60.48
62055;BME280;48653;51.742;-1.256;2023-03-24T07:53:31;99103.59;;;7.67;60.55
62055;BME280;48653;51.742;-1.256;2023-03-24T07:55:56;99102.86;;;8.19;59.47
62055;BME280;48653;51.742;-1.256;2023-03-24T07:58:21;99104.64;;;8.10;60.05
62055;BME280;48653;51.742;-1.256;2023-03-24T08:00:46;99105.72;;;8.15;59.97
62055;BME280;48653;51.742;-1.256;2023-03-24T08:03:12;99107.87;;;7.64;60.04
62055;BME280;48653;51.742;-1.256;2023-03-24T08:05:37;99108.24;;;8.06;60.42
62055;BME280;48653;51.742;-1.256;2023-03-24T08:08:03;99107.52;;;7.63;60.79
62055;BME280;48653;51.742;-1.256;2023-03-24T08:10:29;99109.89;;;8.33;59.64
62055;BME280;48653;51.742;-1.256;2023-03-24T08:12:54;99106.10;;;8.55;58.64
62055;BME280;48653;51.742;-1.256;2023-03-24T08:15:19;99112.16;;;8.17;58.94
62055;BME280;48653;51.742;-1.256;2023-03-24T08:17:44;99107.42;;;8.89;58.80
62055;BME280;48653;51.742;-1.256;2023-03-24T08:20:11;99106.11;;;8.30;59.71
62055;BME280;48653;51.742;-1.256;2023-03-24T08:22:36;99109.66;;;8.81;58.51
62055;BME280;48653;51.742;-1.256;2023-03-24T08:24:59;99110.88;;;7.90;60.47
62055;BME280;48653;51.742;-1.256;2023-03-24T08:27:25;99111.31;;;7.97;60.84
62055;BME280;48653;51.742;-1.256;2023-03-24T08:29:50;99113.53;;;8.89;59.41
62055;BME280;48653;51.742;-1.256;2023-03-24T08:32:15;99115.45;;;9.21;57.79
62055;BME280;48653;51.742;-1.256;2023-03-24T08:34:40;99120.19;;;9.11;58.22
62055;BME280;48653;51.742;-1.256;2023-03-24T08:37:05;99123.00;;;8.34;59.17
62055;BME280;48653;51.742;-1.256;2023-03-24T08:39:30;99127.76;;;8.89;58.04
62055;BME280;48653;51.742;-1.256;2023-03-24T08:41:56;99121.82;;;8.81;58.49
62055;BME280;48653;51.742;-1.256;2023-03-24T08:44:21;99120.28;;;9.33;57.34
62055;BME280;48653;51.742;-1.256;2023-03-24T08:46:46;99115.92;;;9.58;57.66
62055;BME280;48653;51.742;-1.256;2023-03-24T08:49:12;99115.88;;;8.76;58.59
62055;BME280;48653;51.742;-1.256;2023-03-24T08:51:37;99116.68;;;8.75;58.42
62055;BME280;48653;51.742;-1.256;2023-03-24T08:54:03;99117.15;;;8.91;58.35
62055;BME280;48653;51.742;-1.256;2023-03-24T08:56:28;99122.62;;;9.28;57.64
62055;BME280;48653;51.742;-1.256;2023-03-24T08:58:54;99126.07;;;8.61;58.79
62055;BME280;48653;51.742;-1.256;2023-03-24T09:01:19;99133.73;;;8.64;57.49
62055;BME280;48653;51.742;-1.256;2023-03-24T09:03:45;99125.68;;;9.12;57.65
62055;BME280;48653;51.742;-1.256;2023-03-24T09:06:10;99130.79;;;9.43;56.81
62055;BME280;48653;51.742;-1.256;2023-03-24T09:08:35;99129.54;;;9.40;56.83
62055;BME280;48653;51.742;-1.256;2023-03-24T09:11:01;99133.12;;;9.61;55.69
62055;BME280;48653;51.742;-1.256;2023-03-24T09:13:26;99130.67;;;9.92;55.11
62055;BME280;48653;51.742;-1.256;2023-03-24T09:15:56;99130.94;;;10.52;53.41
62055;BME280;48653;51.742;-1.256;2023-03-24T09:18:17;99133.27;;;10.48;53.27
62055;BME280;48653;51.742;-1.256;2023-03-24T09:20:41;99132.57;;;10.25;53.27
62055;BME280;48653;51.742;-1.256;2023-03-24T09:23:06;99139.62;;;10.90;51.72
62055;BME280;48653;51.742;-1.256;2023-03-24T09:25:32;99133.86;;;10.48;50.16
62055;BME280;48653;51.742;-1.256;2023-03-24T09:27:57;99135.15;;;11.13;49.79
62055;BME280;48653;51.742;-1.256;2023-03-24T09:30:22;99133.34;;;10.75;49.29
62055;BME280;48653;51.742;-1.256;2023-03-24T09:32:48;99136.09;;;11.54;48.63
62055;BME280;48653;51.742;-1.256;2023-03-24T09:35:13;99148.05;;;11.27;48.68
62055;BME280;48653;51.742;-1.256;2023-03-24T09:37:40;99127.81;;;11.93;48.46
62055;BME280;48653;51.742;-1.256;2023-03-24T09:40:05;99126.86;;;11.81;46.75
62055;BME280;48653;51.742;-1.256;2023-03-24T09:42:31;99121.35;;;11.55;47.45
62055;BME280;48653;51.742;-1.256;2023-03-24T09:44:56;99127.20;;;12.05;46.91
62055;BME280;48653;51.742;-1.256;2023-03-24T09:47:26;99129.93;;;12.04;45.29
62055;BME280;48653;51.742;-1.256;2023-03-24T09:49:44;99124.20;;;12.34;45.74
62055;BME280;48653;51.742;-1.256;2023-03-24T09:52:11;99121.14;;;12.50;44.73
62055;BME280;48653;51.742;-1.256;2023-03-24T09:54:41;99129.16;;;12.56;44.29
62055;BME280;48653;51.742;-1.256;2023-03-24T09:56:59;99141.14;;;11.68;44.29
62055;BME280;48653;51.742;-1.256;2023-03-24T09:59:31;99123.73;;;11.17;45.07
62055;BME280;48653;51.742;-1.256;2023-03-24T10:01:49;99138.61;;;10.82;46.41
62055;BME280;48653;51.742;-1.256;2023-03-24T10:04:16;99139.66;;;10.11;47.72
62055;BME280;48653;51.742;-1.256;2023-03-24T10:06:40;99132.86;;;10.98;48.12
62055;BME280;48653;51.742;-1.256;2023-03-24T10:09:16;99127.58;;;12.17;45.37
62055;BME280;48653;51.742;-1.256;2023-03-24T10:11:35;99130.39;;;12.23;44.70
62055;BME280;48653;51.742;-1.256;2023-03-24T10:14:03;99126.13;;;12.81;44.68
62055;BME280;48653;51.742;-1.256;2023-03-24T10:16:27;99127.43;;;12.50;43.72
62055;BME280;48653;51.742;-1.256;2023-03-24T10:18:51;99128.72;;;12.74;43.95
62055;BME280;48653;51.742;-1.256;2023-03-24T10:21:16;99129.54;;;12.51;42.73
62055;BME280;48653;51.742;-1.256;2023-03-24T10:23:39;99131.00;;;12.86;42.62
62055;BME280;48653;51.742;-1.256;2023-03-24T10:26:06;99136.03;;;11.70;43.67
62055;BME280;48653;51.742;-1.256;2023-03-24T10:28:30;99130.47;;;12.22;44.26
62055;BME280;48653;51.742;-1.256;2023-03-24T10:30:53;99126.39;;;11.47;44.98
62055;BME280;48653;51.742;-1.256;2023-03-24T10:33:16;99124.52;;;10.48;46.78
62055;BME280;48653;51.742;-1.256;2023-03-24T10:35:49;99118.47;;;10.90;46.27
62055;BME280;48653;51.742;-1.256;2023-03-24T10:38:15;99116.64;;;10.83;46.72
62055;BME280;48653;51.742;-1.256;2023-03-24T10:40:33;99113.64;;;11.07;46.00
62055;BME280;48653;51.742;-1.256;2023-03-24T10:42:59;99113.82;;;11.54;45.59
62055;BME280;48653;51.742;-1.256;2023-03-24T10:45:27;99104.04;;;11.17;46.41
62055;BME280;48653;51.742;-1.256;2023-03-24T10:47:49;99106.73;;;12.25;46.44
62055;BME280;48653;51.742;-1.256;2023-03-24T10:50:14;99112.43;;;12.52;43.91
62055;BME280;48653;51.742;-1.256;2023-03-24T10:52:39;99103.13;;;12.79;44.08
62055;BME280;48653;51.742;-1.256;2023-03-24T10:55:04;99108.79;;;12.74;43.36
62055;BME280;48653;51.742;-1.256;2023-03-24T10:57:29;99116.86;;;12.44;43.36
62055;BME280;48653;51.742;-1.256;2023-03-24T10:59:55;99106.73;;;12.32;43.41
62055;BME280;48653;51.742;-1.256;2023-03-24T11:02:21;99117.22;;;12.72;42.66
62055;BME280;48653;51.742;-1.256;2023-03-24T11:04:47;99105.19;;;11.92;43.12
62055;BME280;48653;51.742;-1.256;2023-03-24T11:07:15;99104.77;;;11.60;44.33
62055;BME280;48653;51.742;-1.256;2023-03-24T11:09:41;99096.12;;;11.96;44.02
62055;BME280;48653;51.742;-1.256;2023-03-24T11:12:02;99094.99;;;12.92;43.08
62055;BME280;48653;51.742;-1.256;2023-03-24T11:14:26;99095.97;;;13.53;41.61
62055;BME280;48653;51.742;-1.256;2023-03-24T11:16:50;99100.23;;;12.82;41.63
62055;BME280;48653;51.742;-1.256;2023-03-24T11:19:18;99098.29;;;12.81;41.88
62055;BME280;48653;51.742;-1.256;2023-03-24T11:21:42;99095.44;;;11.81;43.38
62055;BME280;48653;51.742;-1.256;2023-03-24T11:24:10;99097.32;;;12.00;45.32
62055;BME280;48653;51.742;-1.256;2023-03-24T11:26:30;99108.32;;;12.51;44.20
62055;BME280;48653;51.742;-1.256;2023-03-24T11:28:56;99107.09;;;11.03;48.40
62055;BME280;48653;51.742;-1.256;2023-03-24T11:31:22;99107.06;;;11.25;49.65
62055;BME280;48653;51.742;-1.256;2023-03-24T11:33:50;99111.51;;;11.15;48.51
62055;BME280;48653;51.742;-1.256;2023-03-24T11:38:35;99107.14;;;11.24;48.25
62055;BME280;48653;51.742;-1.256;2023-03-24T11:41:02;99117.20;;;10.96;49.32
62055;BME280;48653;51.742;-1.256;2023-03-24T11:43:26;99115.21;;;11.19;50.12
62055;BME280;48653;51.742;-1.256;2023-03-24T11:45:57;99113.48;;;10.24;51.28
62055;BME280;48653;51.742;-1.256;2023-03-24T11:48:23;99118.44;;;9.57;52.68
62055;BME280;48653;51.742;-1.256;2023-03-24T11:50:41;99115.18;;;9.99;52.11
62055;BME280;48653;51.742;-1.256;2023-03-24T11:53:11;99125.58;;;10.61;51.53
62055;BME280;48653;51.742;-1.256;2023-03-24T11:55:34;99117.42;;;9.58;53.37
62055;BME280;48653;51.742;-1.256;2023-03-24T11:58:00;99119.20;;;10.62;51.65
62055;BME280;48653;51.742;-1.256;2023-03-24T12:00:24;99105.39;;;11.32;51.82
62055;BME280;48653;51.742;-1.256;2023-03-24T12:02:59;99111.76;;;11.01;50.29
62055;BME280;48653;51.742;-1.256;2023-03-24T12:05:20;99105.58;;;10.87;48.99
62055;BME280;48653;51.742;-1.256;2023-03-24T12:07:50;99102.82;;;10.05;48.85
62055;BME280;48653;51.742;-1.256;2023-03-24T12:10:06;99094.67;;;10.99;49.64
62055;BME280;48653;51.742;-1.256;2023-03-24T12:12:34;99094.50;;;11.31;48.20
62055;BME280;48653;51.742;-1.256;2023-03-24T12:15:04;99086.17;;;9.93;49.83
62055;BME280;48653;51.742;-1.256;2023-03-24T12:17:20;99079.27;;;10.08;49.27
62055;BME280;48653;51.742;-1.256;2023-03-24T12:19:55;99072.79;;;10.39;47.97
62055;BME280;48653;51.742;-1.256;2023-03-24T12:22:17;99064.05;;;11.16;47.84
62055;BME280;48653;51.742;-1.256;2023-03-24T12:24:45;99064.30;;;12.34;44.84
62055;BME280;48653;51.742;-1.256;2023-03-24T12:26:59;99067.38;;;12.27;44.81
62055;BME280;48653;51.742;-1.256;2023-03-24T12:29:36;99063.36;;;12.49;45.08
62055;BME280;48653;51.742;-1.256;2023-03-24T12:31:57;99061.50;;;12.34;44.08
62055;BME280;48653;51.742;-1.256;2023-03-24T12:36:47;99063.19;;;12.66;43.75
62055;BME280;48653;51.742;-1.256;2023-03-24T12:39:08;99061.70;;;12.99;43.14
62055;BME280;48653;51.742;-1.256;2023-03-24T12:44:09;99034.92;;;13.26;43.30
62055;BME280;48653;51.742;-1.256;2023-03-24T12:46:30;99039.03;;;13.31;42.65
62055;BME280;48653;51.742;-1.256;2023-03-24T12:48:55;99027.38;;;13.45;42.50
62055;BME280;48653;51.742;-1.256;2023-03-24T12:51:15;99025.62;;;13.59;41.91
62055;BME280;48653;51.742;-1.256;2023-03-24T12:53:42;99021.55;;;13.55;41.14
62055;BME280;48653;51.742;-1.256;2023-03-24T12:56:03;99022.36;;;13.49;41.87
62055;BME280;48653;51.742;-1.256;2023-03-24T12:58:29;99026.41;;;13.53;41.23
62055;BME280;48653;51.742;-1.256;2023-03-24T13:00:57;99027.74;;;13.79;42.41
62055;BME280;48653;51.742;-1.256;2023-03-24T13:03:17;99034.53;;;13.53;40.54
62055;BME280;48653;51.742;-1.256;2023-03-24T13:05:42;99038.14;;;13.40;41.51
62055;BME280;48653;51.742;-1.256;2023-03-24T13:08:11;99029.06;;;13.14;41.33